createdAt,value
2019-01-04T00:00:47.885Z,63.45
2019-01-04T00:03:16.504Z,63.87
2019-01-04T00:05:45.513Z,66.43
2019-01-04T00:08:14.063Z,64.50
2019-01-04T00:10:42.681Z,75.83
2019-01-04T00:13:11.250Z,62.70
2019-01-04T00:15:39.828Z,66.87
2019-01-04T00:18:08.364Z,74.13
2019-01-04T00:20:36.887Z,69.93
2019-01-04T00:23:05.374Z,65.62
2019-01-04T00:25:33.992Z,60.38
2019-01-04T00:28:02.529Z,67.10
2019-01-04T00:30:31.011Z,65.47
2019-01-04T00:32:59.642Z,74.67
2019-01-04T00:35:28.128Z,80.23
2019-01-04T00:37:56.633Z,81.90
2019-01-04T00:40:25.277Z,77.15
2019-01-04T00:42:53.752Z,65.37
2019-01-04T00:45:22.244Z,66.07
2019-01-04T00:47:50.729Z,60.90
2019-01-04T00:50:19.484Z,66.67
2019-01-04T00:52:48.108Z,58.80
2019-01-04T00:55:19.693Z,59.03
2019-01-04T00:57:57.168Z,71.40
2019-01-04T01:00:50.735Z,65.27
2019-01-04T01:03:45.102Z,68.57
2019-01-04T01:06:48.795Z,59.80
2019-01-04T01:09:36.888Z,56.05
2019-01-04T01:12:17.390Z,80.20
2019-01-04T01:15:08.444Z,60.63
2019-01-04T01:17:55.029Z,63.20
2019-01-04T01:20:38.805Z,56.73
2019-01-04T01:23:34.445Z,57.80
2019-01-04T01:26:39.564Z,63.30
2019-01-04T01:29:40.027Z,54.40
2019-01-04T01:32:40.408Z,59.73
2019-01-04T01:35:27.190Z,60.70
2019-01-04T01:38:27.699Z,58.20
2019-01-04T01:41:17.335Z,54.00
2019-01-04T01:44:23.655Z,47.67
2019-01-04T01:46:58.332Z,53.20
2019-01-04T01:49:57.365Z,53.85
2019-01-04T01:52:34.841Z,50.73
2019-01-04T01:55:03.385Z,48.97
2019-01-04T01:57:31.940Z,60.83
2019-01-04T02:00:00.426Z,57.57
2019-01-04T02:02:28.947Z,56.87
2019-01-04T02:04:57.414Z,54.07
2019-01-04T02:07:25.972Z,51.97
2019-01-04T02:09:54.434Z,56.83
2019-01-04T02:12:22.948Z,47.90
2019-01-04T02:14:51.433Z,65.27
2019-01-04T02:17:20.026Z,48.10
2019-01-04T02:19:48.572Z,54.90
2019-01-04T02:22:17.064Z,51.87
2019-01-04T02:24:45.555Z,52.50
2019-01-04T02:27:14.102Z,57.13
2019-01-04T02:29:42.587Z,55.77
2019-01-04T02:32:11.087Z,51.97
2019-01-04T02:34:39.600Z,54.57
2019-01-04T02:37:08.075Z,55.63
2019-01-04T02:39:36.581Z,49.13
2019-01-04T02:42:05.040Z,50.80
2019-01-04T02:44:33.546Z,47.23
2019-01-04T02:47:02.093Z,51.70
2019-01-04T02:49:30.643Z,65.77
2019-01-04T02:51:59.131Z,51.77
2019-01-04T02:54:27.630Z,42.17
2019-01-04T02:56:56.124Z,44.77
2019-01-04T02:59:24.681Z,46.73
2019-01-04T03:01:53.262Z,48.57
2019-01-04T03:04:21.827Z,63.10
2019-01-04T03:06:50.321Z,56.70
2019-01-04T03:09:18.822Z,47.33
2019-01-04T03:11:47.301Z,53.07
2019-01-04T03:14:15.888Z,59.93
2019-01-04T03:16:44.387Z,46.93
2019-01-04T03:19:12.878Z,47.60
2019-01-04T03:21:41.448Z,51.37
2019-01-04T03:24:09.931Z,49.93
2019-01-04T03:26:38.493Z,44.87
2019-01-04T03:29:07.050Z,41.43
2019-01-04T03:31:35.599Z,47.70
2019-01-04T03:34:04.074Z,46.10
2019-01-04T03:36:32.561Z,40.00
2019-01-04T03:39:01.093Z,49.30
2019-01-04T03:41:29.576Z,41.50
2019-01-04T03:43:58.038Z,44.53
2019-01-04T03:46:26.587Z,42.13
2019-01-04T03:48:55.073Z,37.93
2019-01-04T03:51:23.571Z,49.73
2019-01-04T03:53:52.089Z,49.30
2019-01-04T03:56:20.660Z,48.10
2019-01-04T03:58:49.134Z,53.87
2019-01-04T04:01:17.690Z,46.17
2019-01-04T04:03:46.219Z,51.83
2019-01-04T04:06:14.714Z,45.13
2019-01-04T04:08:43.199Z,57.57
2019-01-04T04:11:12.776Z,45.47
2019-01-04T04:13:41.306Z,48.47
2019-01-04T04:16:09.799Z,45.40
2019-01-04T04:18:38.381Z,45.90
2019-01-04T04:21:06.882Z,46.50
2019-01-04T04:23:35.414Z,40.27
2019-01-04T04:26:03.950Z,39.67
2019-01-04T04:28:32.470Z,45.17
2019-01-04T04:31:01.030Z,43.13
2019-01-04T04:33:29.507Z,44.27
2019-01-04T04:35:58.006Z,47.53
2019-01-04T04:38:26.487Z,46.47
2019-01-04T04:40:54.973Z,42.80
2019-01-04T04:43:23.487Z,42.53
2019-01-04T04:45:51.967Z,42.10
2019-01-04T04:48:20.440Z,42.83
2019-01-04T04:50:48.918Z,38.47
2019-01-04T04:53:17.470Z,41.10
2019-01-04T04:55:46.038Z,41.80
2019-01-04T04:58:14.553Z,51.80
2019-01-04T05:00:43.046Z,48.80
2019-01-04T05:03:11.541Z,53.10
2019-01-04T05:05:40.078Z,43.63
2019-01-04T05:08:08.560Z,44.20
2019-01-04T05:10:37.031Z,47.23
2019-01-04T05:13:05.606Z,49.13
2019-01-04T05:15:34.120Z,38.00
2019-01-04T05:18:02.579Z,49.03
2019-01-04T05:20:31.069Z,47.77
2019-01-04T05:22:59.550Z,38.40
2019-01-04T05:25:28.032Z,43.37
2019-01-04T05:27:56.529Z,42.23
2019-01-04T05:30:25.232Z,42.10
2019-01-04T05:32:53.803Z,43.87
2019-01-04T05:35:22.308Z,47.63
2019-01-04T05:37:50.754Z,36.07
2019-01-04T05:40:19.256Z,48.57
2019-01-04T05:42:47.715Z,35.40
2019-01-04T05:45:16.217Z,52.97
2019-01-04T05:47:44.684Z,39.00
2019-01-04T05:50:13.261Z,40.70
2019-01-04T05:52:41.737Z,41.30
2019-01-04T05:55:11.995Z,41.80
2019-01-04T05:57:40.846Z,34.97
2019-01-04T06:00:10.851Z,40.00
2019-01-04T06:02:39.329Z,40.57
2019-01-04T06:05:07.819Z,43.27
2019-01-04T06:07:36.365Z,37.40
2019-01-04T06:10:06.512Z,35.37
2019-01-04T06:12:35.002Z,43.53
2019-01-04T06:15:03.687Z,37.60
2019-01-04T06:17:32.172Z,39.50
2019-01-04T06:20:00.666Z,36.37
2019-01-04T06:22:29.141Z,42.67
2019-01-04T06:24:57.616Z,35.97
2019-01-04T06:27:26.155Z,31.30
2019-01-04T06:29:54.635Z,34.93
2019-01-04T06:32:23.127Z,43.20
2019-01-04T06:34:51.665Z,33.57
2019-01-04T06:37:20.172Z,43.43
2019-01-04T06:39:48.650Z,39.27
2019-01-04T06:42:17.159Z,50.30
2019-01-04T06:44:45.609Z,40.20
2019-01-04T06:47:15.738Z,34.97
2019-01-04T06:49:44.367Z,38.00
2019-01-04T06:52:12.931Z,29.00
2019-01-04T06:55:19.571Z,33.17
2019-01-04T06:57:48.152Z,40.70
2019-01-04T07:00:16.687Z,33.43
2019-01-04T07:02:45.185Z,27.73
2019-01-04T07:05:13.712Z,33.43
2019-01-04T07:07:42.203Z,36.13
2019-01-04T07:10:10.685Z,38.47
2019-01-04T07:12:39.165Z,37.33
2019-01-04T07:15:07.755Z,32.23
2019-01-04T07:17:36.253Z,39.70
2019-01-04T07:20:05.684Z,31.23
2019-01-04T07:22:34.143Z,31.20
2019-01-04T07:25:02.628Z,31.53
2019-01-04T07:27:31.116Z,35.70
2019-01-04T07:29:59.586Z,41.37
2019-01-04T07:32:28.047Z,33.17
2019-01-04T07:34:56.516Z,36.80
2019-01-04T07:37:24.981Z,35.83
2019-01-04T07:39:53.576Z,37.57
2019-01-04T07:42:22.039Z,35.97
2019-01-04T07:44:50.526Z,36.63
2019-01-04T07:47:18.996Z,36.37
2019-01-04T07:49:47.482Z,38.87
2019-01-04T07:52:15.959Z,40.40
2019-01-04T07:54:44.497Z,38.80
2019-01-04T07:57:12.958Z,38.33
2019-01-04T07:59:41.419Z,31.87
2019-01-04T08:02:44.405Z,33.17
2019-01-04T08:05:17.763Z,37.30
2019-01-04T08:07:46.287Z,40.17
2019-01-04T08:10:14.769Z,34.63
2019-01-04T08:12:43.238Z,43.30
2019-01-04T08:15:11.958Z,40.00
2019-01-04T08:17:40.472Z,35.13
2019-01-04T08:20:10.594Z,30.30
2019-01-04T08:22:39.060Z,36.10
2019-01-04T08:25:08.376Z,41.40
2019-01-04T08:27:36.875Z,37.93
2019-01-04T08:30:10.919Z,52.40
2019-01-04T08:32:39.485Z,46.53
2019-01-04T08:35:08.067Z,49.00
2019-01-04T08:37:36.557Z,43.87
2019-01-04T08:40:08.226Z,40.87
2019-01-04T08:42:37.421Z,37.47
2019-01-04T08:45:07.665Z,33.10
2019-01-04T08:47:36.144Z,38.43
2019-01-04T08:50:07.141Z,39.10
2019-01-04T08:52:35.633Z,33.17
2019-01-04T08:55:06.436Z,40.50
2019-01-04T08:57:34.972Z,34.33
2019-01-04T09:00:04.955Z,36.70
2019-01-04T09:02:33.444Z,34.37
2019-01-04T09:05:01.891Z,32.57
2019-01-04T09:07:30.475Z,31.33
2019-01-04T09:09:58.945Z,37.70
2019-01-04T09:12:27.777Z,40.77
2019-01-04T09:14:56.303Z,36.87
2019-01-04T09:17:24.877Z,33.97
2019-01-04T09:19:53.368Z,27.80
2019-01-04T09:22:21.909Z,33.57
2019-01-04T09:24:50.383Z,24.70
2019-01-04T09:27:18.921Z,42.43
2019-01-04T09:29:47.469Z,26.93
2019-01-04T09:32:16.037Z,29.70
2019-01-04T09:34:44.604Z,33.80
2019-01-04T09:37:13.234Z,29.50
2019-01-04T09:39:41.845Z,26.83
2019-01-04T09:42:10.463Z,54.33
2019-01-04T09:44:38.989Z,36.53
2019-01-04T09:47:07.655Z,36.83
2019-01-04T09:49:36.344Z,29.67
2019-01-04T09:52:04.928Z,27.83
2019-01-04T09:54:33.598Z,26.97
2019-01-04T09:57:02.154Z,31.00
2019-01-04T09:59:30.838Z,28.20
2019-01-04T10:01:59.327Z,28.90
2019-01-04T10:04:28.226Z,25.13
2019-01-04T10:06:56.697Z,25.60
2019-01-04T10:09:25.921Z,35.47
2019-01-04T10:11:54.742Z,29.17
2019-01-04T10:14:23.293Z,34.07
2019-01-04T10:16:51.934Z,38.73
2019-01-04T10:19:20.681Z,46.47
2019-01-04T10:21:49.321Z,35.87
2019-01-04T10:24:17.805Z,29.73
2019-01-04T10:26:46.361Z,26.77
2019-01-04T10:29:14.878Z,31.60
2019-01-04T10:31:43.692Z,24.30
2019-01-04T10:34:12.441Z,32.60
2019-01-04T10:36:40.921Z,33.87
2019-01-04T10:39:09.486Z,33.43
2019-01-04T10:41:38.139Z,22.73
2019-01-04T10:44:06.764Z,24.70
2019-01-04T10:46:35.353Z,22.37
2019-01-04T10:49:04.054Z,23.17
2019-01-04T10:51:32.537Z,22.73
2019-01-04T10:54:01.168Z,24.70
2019-01-04T10:56:29.942Z,28.47
2019-01-04T10:58:58.693Z,31.77
2019-01-04T11:01:27.319Z,20.40
2019-01-04T11:03:56.213Z,24.33
2019-01-04T11:06:24.875Z,27.53
2019-01-04T11:08:53.447Z,27.37
2019-01-04T11:11:22.134Z,24.40
2019-01-04T11:13:50.684Z,26.60
2019-01-04T11:16:19.171Z,26.97
2019-01-04T11:18:47.804Z,33.30
2019-01-04T11:21:16.633Z,43.83
2019-01-04T11:24:07.515Z,29.63
2019-01-04T11:26:42.283Z,29.40
2019-01-04T11:29:26.133Z,29.03
2019-01-04T11:32:06.680Z,25.10
2019-01-04T11:34:53.368Z,23.53
2019-01-04T11:37:52.105Z,21.80
2019-01-04T11:40:23.809Z,26.40
2019-01-04T11:43:07.419Z,26.40
2019-01-04T11:45:41.568Z,28.27
2019-01-04T11:48:16.545Z,21.40
2019-01-04T11:51:03.115Z,24.00
2019-01-04T11:53:31.635Z,26.17
2019-01-04T11:56:00.099Z,21.83
2019-01-04T11:58:28.641Z,25.50
2019-01-04T12:00:57.198Z,29.47
2019-01-04T12:03:26.117Z,84.00
2019-01-04T12:05:54.632Z,78.40
2019-01-04T12:08:23.087Z,43.17
2019-01-04T12:10:51.900Z,40.70
2019-01-04T12:13:22.992Z,45.70
2019-01-04T12:15:51.476Z,42.40
2019-01-04T12:18:21.050Z,24.60
2019-01-04T12:20:49.648Z,21.50
2019-01-04T12:23:19.836Z,23.20
2019-01-04T12:25:48.426Z,29.23
2019-01-04T12:28:16.944Z,27.20
2019-01-04T12:30:46.358Z,28.07
2019-01-04T12:33:17.069Z,32.53
2019-01-04T12:35:45.828Z,33.80
2019-01-04T12:38:14.794Z,34.77
2019-01-04T12:40:43.547Z,63.83
2019-01-04T12:43:12.116Z,44.40
2019-01-04T12:45:41.426Z,63.73
2019-01-04T12:48:10.750Z,34.30
2019-01-04T12:50:39.566Z,57.23
2019-01-04T12:53:08.121Z,42.33
2019-01-04T12:55:37.528Z,40.87
2019-01-04T12:58:06.138Z,28.17
2019-01-04T13:00:34.674Z,40.43
2019-01-04T13:03:03.258Z,34.63
2019-01-04T13:05:31.728Z,44.33
2019-01-04T13:08:00.323Z,43.07
2019-01-04T13:10:28.905Z,44.40
2019-01-04T13:12:57.405Z,31.53
2019-01-04T13:15:25.873Z,36.33
2019-01-04T13:17:54.392Z,48.63
2019-01-04T13:20:22.943Z,57.60
2019-01-04T13:22:51.441Z,44.20
2019-01-04T13:25:19.922Z,35.17
2019-01-04T13:27:48.428Z,43.63
2019-01-04T13:30:16.915Z,48.20
2019-01-04T13:32:45.454Z,34.03
2019-01-04T13:35:13.915Z,51.17
2019-01-04T13:37:42.423Z,32.70
2019-01-04T13:40:10.895Z,40.67
2019-01-04T13:42:39.457Z,37.30
2019-01-04T13:45:08.186Z,51.93
2019-01-04T13:47:36.695Z,57.23
2019-01-04T13:50:06.928Z,79.97
2019-01-04T13:52:35.386Z,55.43
2019-01-04T13:55:04.036Z,53.37
2019-01-04T13:57:32.573Z,36.50
2019-01-04T14:00:01.057Z,32.73
2019-01-04T14:02:29.575Z,34.53
2019-01-04T14:04:58.065Z,42.80
2019-01-04T14:07:26.567Z,47.73
2019-01-04T14:09:55.035Z,49.47
2019-01-04T14:12:23.501Z,59.10
2019-01-04T14:14:52.119Z,51.27
2019-01-04T14:17:20.625Z,42.93
2019-01-04T14:19:49.112Z,38.57
2019-01-04T14:22:17.605Z,41.23
2019-01-04T14:24:46.134Z,33.50
2019-01-04T14:27:14.684Z,28.83
2019-01-04T14:29:43.191Z,41.57
2019-01-04T14:32:11.732Z,25.87
2019-01-04T14:34:40.414Z,36.80
2019-01-04T14:37:08.984Z,36.03
2019-01-04T14:39:38.827Z,31.00
2019-01-04T14:42:07.280Z,27.60
2019-01-04T14:44:35.744Z,28.10
2019-01-04T14:47:04.682Z,33.67
2019-01-04T14:49:33.225Z,36.60
2019-01-04T14:52:01.939Z,36.33
2019-01-04T14:54:30.704Z,30.80
2019-01-04T14:56:59.310Z,29.47
2019-01-04T14:59:28.093Z,25.70
2019-01-04T15:01:56.927Z,33.80
2019-01-04T15:04:25.739Z,23.73
2019-01-04T15:06:54.265Z,31.17
2019-01-04T15:09:22.873Z,39.60
2019-01-04T15:11:51.596Z,30.90
2019-01-04T15:14:20.176Z,34.20
2019-01-04T15:16:48.890Z,27.93
2019-01-04T15:19:17.736Z,33.20
2019-01-04T15:21:46.415Z,35.63
2019-01-04T15:24:14.955Z,28.70
2019-01-04T15:26:43.459Z,36.10
2019-01-04T15:29:12.418Z,32.10
2019-01-04T15:31:41.079Z,33.60
2019-01-04T15:34:09.737Z,31.33
2019-01-04T15:36:38.293Z,28.10
2019-01-04T15:39:07.289Z,29.40
2019-01-04T15:41:35.840Z,33.30
2019-01-04T15:44:04.644Z,36.00
2019-01-04T15:46:33.128Z,43.63
2019-01-04T15:49:02.267Z,33.37
2019-01-04T15:51:30.897Z,31.40
2019-01-04T15:53:59.709Z,27.83
2019-01-04T15:56:28.282Z,32.13
2019-01-04T15:58:56.795Z,26.20
2019-01-04T16:01:25.271Z,27.17
2019-01-04T16:03:53.801Z,29.23
2019-01-04T16:06:22.278Z,25.10
2019-01-04T16:08:50.773Z,29.33
2019-01-04T16:11:19.242Z,29.97
2019-01-04T16:13:47.806Z,35.27
2019-01-04T16:16:16.315Z,30.73
2019-01-04T16:18:44.919Z,28.93
2019-01-04T16:21:14.151Z,25.90
2019-01-04T16:23:43.436Z,33.30
2019-01-04T16:26:11.920Z,28.50
2019-01-04T16:28:40.393Z,26.10
2019-01-04T16:31:08.875Z,37.07
2019-01-04T16:33:37.376Z,26.60
2019-01-04T16:36:06.936Z,27.13
2019-01-04T16:38:35.431Z,32.53
2019-01-04T16:41:03.977Z,26.47
2019-01-04T16:43:32.545Z,33.57
2019-01-04T16:46:01.023Z,31.83
2019-01-04T16:48:29.476Z,32.53
2019-01-04T16:50:57.975Z,47.57
2019-01-04T16:53:26.460Z,47.00
2019-01-04T16:55:54.956Z,44.00
2019-01-04T16:58:23.655Z,27.00
2019-01-04T17:00:52.223Z,31.70
2019-01-04T17:03:20.710Z,32.03
2019-01-04T17:05:49.203Z,25.07
2019-01-04T17:08:17.751Z,26.47
2019-01-04T17:10:46.305Z,19.63
2019-01-04T17:13:14.880Z,22.23
2019-01-04T17:15:43.454Z,23.80
2019-01-04T17:18:11.986Z,23.40
2019-01-04T17:20:40.552Z,28.57
2019-01-04T17:23:09.108Z,23.83
2019-01-04T17:25:37.636Z,21.90
2019-01-04T17:28:06.169Z,24.23
2019-01-04T17:30:34.649Z,25.70
2019-01-04T17:33:03.173Z,20.40
2019-01-04T17:35:31.640Z,25.33
2019-01-04T17:38:00.146Z,23.10
2019-01-04T17:40:28.691Z,20.37
2019-01-04T17:42:57.298Z,23.10
2019-01-04T17:45:25.868Z,19.27
2019-01-04T17:47:54.385Z,20.67
2019-01-04T17:50:22.888Z,17.90
2019-01-04T17:52:51.387Z,18.63
2019-01-04T17:55:19.870Z,17.43
2019-01-04T17:57:48.438Z,24.80
2019-01-04T18:00:16.916Z,29.47
2019-01-04T18:02:45.414Z,21.50
2019-01-04T18:05:13.954Z,30.10
2019-01-04T18:07:42.434Z,20.07
2019-01-04T18:10:10.923Z,20.23
2019-01-04T18:12:39.407Z,19.77
2019-01-04T18:15:08.289Z,23.13
2019-01-04T18:17:36.772Z,19.20
2019-01-04T18:20:10.838Z,21.70
2019-01-04T18:22:37.886Z,17.83
2019-01-04T18:25:06.416Z,22.70
2019-01-04T18:27:34.917Z,22.57
2019-01-04T18:30:04.190Z,21.00
2019-01-04T18:32:32.676Z,21.43
2019-01-04T18:35:01.174Z,23.57
2019-01-04T18:37:29.631Z,19.17
2019-01-04T18:39:58.131Z,18.73
2019-01-04T18:42:26.584Z,21.70
2019-01-04T18:44:55.075Z,18.97
2019-01-04T18:47:24.586Z,27.67
2019-01-04T18:49:53.329Z,17.93
2019-01-04T18:52:21.856Z,18.20
2019-01-04T18:54:50.355Z,20.80
2019-01-04T18:57:18.841Z,14.40
2019-01-04T18:59:47.327Z,17.07
2019-01-04T19:02:15.829Z,14.50
2019-01-04T19:04:44.384Z,22.77
2019-01-04T19:07:12.844Z,16.80
2019-01-04T19:09:41.356Z,19.23
2019-01-04T19:12:09.829Z,14.63
2019-01-04T19:14:39.142Z,19.57
2019-01-04T19:17:07.647Z,25.73
2019-01-04T19:19:36.109Z,24.87
2019-01-04T19:22:04.678Z,20.00
2019-01-04T19:24:33.141Z,38.70
2019-01-04T19:27:01.643Z,31.87
2019-01-04T19:29:30.160Z,24.03
2019-01-04T19:31:58.690Z,24.23
2019-01-04T19:34:27.195Z,28.47
2019-01-04T19:36:55.693Z,28.90
2019-01-04T19:39:24.162Z,25.23
2019-01-04T19:41:52.639Z,29.17
2019-01-04T19:44:21.136Z,26.50
2019-01-04T19:46:49.607Z,20.53
2019-01-04T19:49:18.083Z,26.60
2019-01-04T19:51:46.663Z,26.10
2019-01-04T19:54:15.150Z,30.43
2019-01-04T19:56:43.605Z,28.00
2019-01-04T19:59:12.098Z,33.10
2019-01-04T20:01:40.651Z,27.60
2019-01-04T20:04:10.174Z,27.13
2019-01-04T20:06:49.227Z,30.47
2019-01-04T20:09:37.273Z,28.57
2019-01-04T20:12:52.894Z,33.83
2019-01-04T20:15:57.302Z,25.20
2019-01-04T20:18:36.429Z,24.33
2019-01-04T20:21:06.526Z,18.93
2019-01-04T20:23:53.249Z,23.70
2019-01-04T20:26:39.834Z,25.20
2019-01-04T20:29:12.466Z,29.97
2019-01-04T20:32:00.652Z,31.07
2019-01-04T20:34:36.577Z,29.53
2019-01-04T20:37:06.688Z,24.60
2019-01-04T20:39:53.456Z,28.57
2019-01-04T20:42:26.487Z,33.37
2019-01-04T20:44:56.655Z,31.90
2019-01-04T20:47:26.816Z,26.77
2019-01-04T20:49:57.017Z,28.07
2019-01-04T20:52:36.034Z,30.17
2019-01-04T20:55:12.125Z,42.00
2019-01-04T20:57:57.518Z,49.63
2019-01-04T21:00:42.610Z,27.33
2019-01-04T21:03:15.437Z,24.37
2019-01-04T21:05:48.284Z,25.30
2019-01-04T21:08:30.171Z,28.40
2019-01-04T21:11:16.263Z,29.73
2019-01-04T21:13:52.517Z,28.03
2019-01-04T21:16:22.721Z,23.93
2019-01-04T21:18:55.524Z,32.50
2019-01-04T21:21:31.630Z,23.40
2019-01-04T21:24:01.757Z,28.47
2019-01-04T21:26:31.878Z,24.10
2019-01-04T21:29:17.003Z,23.30
2019-01-04T21:31:49.883Z,21.33
2019-01-04T21:34:36.302Z,23.87
2019-01-04T21:37:09.465Z,22.93
2019-01-04T21:39:51.849Z,22.70
2019-01-04T21:42:28.136Z,22.93
2019-01-04T21:45:14.911Z,24.63
2019-01-04T21:47:45.161Z,27.13
2019-01-04T21:50:15.343Z,29.23
2019-01-04T21:52:54.678Z,20.03
2019-01-04T21:55:24.807Z,22.37
2019-01-04T21:58:10.875Z,23.33
2019-01-04T22:00:46.988Z,23.73
2019-01-04T22:03:19.915Z,18.40
2019-01-04T22:05:53.101Z,19.27
2019-01-04T22:08:29.182Z,21.70
2019-01-04T22:11:15.604Z,18.57
2019-01-04T22:13:48.510Z,18.80
2019-01-04T22:16:21.300Z,18.70
2019-01-04T22:19:06.340Z,24.97
2019-01-04T22:21:45.617Z,22.37
2019-01-04T22:24:24.462Z,20.40
2019-01-04T22:27:11.078Z,17.60
2019-01-04T22:29:59.296Z,21.90
2019-01-04T22:32:29.400Z,20.73
2019-01-04T22:34:59.535Z,22.93
2019-01-04T22:37:29.644Z,21.70
2019-01-04T22:40:08.536Z,21.83
2019-01-04T22:42:41.431Z,25.97
2019-01-04T22:45:14.570Z,21.43
2019-01-04T22:47:59.639Z,21.07
2019-01-04T22:50:32.743Z,24.67
2019-01-04T22:53:18.129Z,22.10
2019-01-04T22:55:48.267Z,25.23
2019-01-04T22:58:24.156Z,21.10
2019-01-04T23:00:54.276Z,24.77
2019-01-04T23:03:30.420Z,23.10
2019-01-04T23:06:00.548Z,23.37
2019-01-04T23:08:47.090Z,24.50
2019-01-04T23:11:33.705Z,26.90
2019-01-04T23:14:20.446Z,27.00
2019-01-04T23:17:02.599Z,25.80
2019-01-04T23:19:47.781Z,28.50
2019-01-04T23:22:45.998Z,27.63
2019-01-04T23:25:27.912Z,28.00
2019-01-04T23:28:09.765Z,22.50
2019-01-04T23:30:46.074Z,24.50
2019-01-04T23:33:19.221Z,27.37
2019-01-04T23:35:54.827Z,28.57
2019-01-04T23:38:30.628Z,26.60
2019-01-04T23:41:17.060Z,25.93
2019-01-04T23:44:03.695Z,27.00
2019-01-04T23:46:50.164Z,27.63
2019-01-04T23:49:20.344Z,28.23
2019-01-04T23:52:05.782Z,29.10
2019-01-04T23:54:53.810Z,39.17
2019-01-04T23:57:24.028Z,38.07
